createdAt,value
2023-03-20T00:00:23.263Z,101819.25
2023-03-20T00:02:52.601Z,101818.56
2023-03-20T00:05:21.423Z,101817.69
2023-03-20T00:07:49.436Z,101819.59
2023-03-20T00:10:18.196Z,101817.84
2023-03-20T00:12:46.746Z,101816.09
2023-03-20T00:15:31.851Z,101806.47
2023-03-20T00:18:01.364Z,101817.91
2023-03-20T00:20:31.568Z,101815.13
2023-03-20T00:22:59.597Z,101805.31
2023-03-20T00:25:28.424Z,101800.94
2023-03-20T00:27:56.271Z,101794.66
2023-03-20T00:30:29.556Z,101794.47
2023-03-20T00:32:58.053Z,101792.69
2023-03-20T00:35:29.524Z,101795.28
2023-03-20T00:37:57.590Z,101789.03
2023-03-20T00:40:27.100Z,101789.78
2023-03-20T00:42:59.587Z,101793.34
2023-03-20T00:45:27.664Z,101788.81
2023-03-20T00:47:55.566Z,101792.28
2023-03-20T00:50:24.338Z,101785.97
2023-03-20T00:52:53.644Z,101775.41
2023-03-20T00:55:22.957Z,101781.69
2023-03-20T00:57:51.402Z,101768.34
2023-03-20T01:00:25.017Z,101763.91
2023-03-20T01:02:53.678Z,101777.09
2023-03-20T01:05:21.724Z,101770.94
2023-03-20T01:07:49.802Z,101761.22
2023-03-20T01:10:19.273Z,101761.16
2023-03-20T01:12:47.510Z,101761.09
2023-03-20T01:15:21.129Z,101756.56
2023-03-20T01:17:49.165Z,101744.03
2023-03-20T01:20:18.946Z,101738.69
2023-03-20T01:22:46.809Z,101740.38
2023-03-20T01:25:15.180Z,101732.44
2023-03-20T01:27:45.125Z,101741.25
2023-03-20T01:30:18.087Z,101743.00
2023-03-20T01:32:46.530Z,101737.53
2023-03-20T01:35:15.679Z,101740.16
2023-03-20T01:37:43.608Z,101732.16
2023-03-20T01:40:16.439Z,101729.34
2023-03-20T01:42:45.853Z,101732.00
2023-03-20T01:45:17.158Z,101725.75
2023-03-20T01:47:45.011Z,101725.69
2023-03-20T01:50:24.295Z,101722.16
2023-03-20T01:52:53.793Z,101722.16
2023-03-20T01:55:21.688Z,101717.69
2023-03-20T01:57:51.450Z,101707.75
2023-03-20T02:00:19.816Z,101709.56
2023-03-20T02:02:48.290Z,101719.47
2023-03-20T02:05:17.039Z,101711.28
2023-03-20T02:07:44.885Z,101705.03
2023-03-20T02:10:13.857Z,101700.50
2023-03-20T02:12:42.362Z,101700.50
2023-03-20T02:15:12.489Z,101695.16
2023-03-20T02:17:40.345Z,101695.03
2023-03-20T02:20:11.582Z,101696.78
2023-03-20T02:23:02.091Z,101686.22
2023-03-20T02:25:55.000Z,101683.53
2023-03-20T02:29:08.561Z,101676.34
2023-03-20T02:31:54.316Z,101671.88
2023-03-20T02:34:38.654Z,101672.75
2023-03-20T02:37:42.739Z,101667.41
2023-03-20T02:40:14.915Z,101673.66
2023-03-20T02:42:46.104Z,101668.31
2023-03-20T02:45:16.671Z,101681.50
2023-03-20T02:47:49.994Z,101664.56
2023-03-20T02:50:18.969Z,101665.38
2023-03-20T02:52:51.131Z,101668.84
2023-03-20T02:55:19.903Z,101674.19
2023-03-20T02:57:52.603Z,101663.50
2023-03-20T03:00:24.835Z,101659.84
2023-03-20T03:02:54.194Z,101657.97
2023-03-20T03:05:23.305Z,101657.06
2023-03-20T03:07:53.657Z,101642.28
2023-03-20T03:10:23.076Z,101655.13
2023-03-20T03:12:51.516Z,101649.69
2023-03-20T03:15:21.900Z,101650.53
2023-03-20T03:17:49.914Z,101654.13
2023-03-20T03:20:21.747Z,101651.47
2023-03-20T03:22:50.568Z,101643.63
2023-03-20T03:25:19.830Z,101656.53
2023-03-20T03:27:48.977Z,101654.75
2023-03-20T03:30:18.984Z,101649.47
2023-03-20T03:32:49.417Z,101652.88
2023-03-20T03:35:18.805Z,101651.97
2023-03-20T03:37:50.964Z,101655.47
2023-03-20T03:40:23.048Z,101643.38
2023-03-20T03:42:54.939Z,101648.41
2023-03-20T03:45:25.025Z,101643.06
2023-03-20T03:47:54.734Z,101642.25
2023-03-20T03:50:24.335Z,101635.25
2023-03-20T03:52:52.993Z,101644.94
2023-03-20T03:55:23.387Z,101638.72
2023-03-20T03:57:53.473Z,101637.13
2023-03-20T04:00:23.843Z,101638.00
2023-03-20T04:02:53.560Z,101646.81
2023-03-20T04:05:21.596Z,101636.16
2023-03-20T04:07:49.946Z,101638.84
2023-03-20T04:10:18.168Z,101630.78
2023-03-20T04:12:48.194Z,101636.16
2023-03-20T04:15:17.062Z,101629.91
2023-03-20T04:17:45.084Z,101635.25
2023-03-20T04:20:14.158Z,101637.91
2023-03-20T04:22:42.161Z,101627.22
2023-03-20T04:25:11.209Z,101627.22
2023-03-20T04:27:39.352Z,101635.19
2023-03-20T04:30:10.135Z,101635.19
2023-03-20T04:32:38.181Z,101635.13
2023-03-20T04:35:07.521Z,101632.47
2023-03-20T04:37:35.394Z,101626.25
2023-03-20T04:40:04.575Z,101635.94
2023-03-20T04:42:32.472Z,101633.25
2023-03-20T04:45:00.537Z,101627.13
2023-03-20T04:47:29.978Z,101629.78
2023-03-20T04:49:57.997Z,101629.63
2023-03-20T04:52:26.186Z,101624.28
2023-03-20T04:54:54.160Z,101606.97
2023-03-20T04:57:22.074Z,101620.63
2023-03-20T04:59:49.978Z,101633.91
2023-03-20T05:02:18.105Z,101624.94
2023-03-20T05:04:47.406Z,101625.75
2023-03-20T05:07:15.290Z,101628.38
2023-03-20T05:09:46.175Z,101629.22
2023-03-20T05:12:14.085Z,101630.97
2023-03-20T05:14:41.932Z,101616.72
2023-03-20T05:17:09.831Z,101614.03
2023-03-20T05:19:38.827Z,101625.50
2023-03-20T05:22:08.105Z,101611.19
2023-03-20T05:24:36.008Z,101610.31
2023-03-20T05:27:03.906Z,101612.00
2023-03-20T05:29:32.003Z,101609.31
2023-03-20T05:32:00.170Z,101614.63
2023-03-20T05:34:28.088Z,101610.13
2023-03-20T05:36:56.047Z,101602.19
2023-03-20T05:39:25.432Z,101601.38
2023-03-20T05:41:53.642Z,101617.31
2023-03-20T05:44:21.534Z,101617.22
2023-03-20T05:46:49.437Z,101620.81
2023-03-20T05:49:17.412Z,101613.69
2023-03-20T05:51:45.516Z,101615.47
2023-03-20T05:54:13.618Z,101608.41
2023-03-20T05:56:42.901Z,101612.78
2023-03-20T05:59:10.936Z,101604.78
2023-03-20T06:01:38.773Z,101610.19
2023-03-20T06:04:08.456Z,101603.94
2023-03-20T06:06:38.028Z,101604.84
2023-03-20T06:09:06.342Z,101607.53
2023-03-20T06:11:36.974Z,101601.25
2023-03-20T06:14:06.791Z,101595.97
2023-03-20T06:16:34.687Z,101594.25
2023-03-20T06:19:02.540Z,101605.81
2023-03-20T06:21:30.624Z,101601.38
2023-03-20T06:24:00.106Z,101596.91
2023-03-20T06:26:28.297Z,101602.19
2023-03-20T06:28:56.332Z,101599.50
2023-03-20T06:31:25.698Z,101596.75
2023-03-20T06:33:53.948Z,101594.97
2023-03-20T06:36:21.900Z,101598.41
2023-03-20T06:38:49.818Z,101609.13
2023-03-20T06:41:33.363Z,101610.00
2023-03-20T06:44:02.554Z,101612.59
2023-03-20T06:46:32.102Z,101607.25
2023-03-20T06:49:00.216Z,101586.16
2023-03-20T06:51:28.179Z,101599.19
2023-03-20T06:53:56.159Z,101608.88
2023-03-20T06:56:24.049Z,101602.72
2023-03-20T06:58:52.173Z,101607.25
2023-03-20T07:01:20.539Z,101609.94
2023-03-20T07:03:57.459Z,101613.47
2023-03-20T07:06:25.693Z,101620.41
2023-03-20T07:08:53.739Z,101606.94
2023-03-20T07:11:22.557Z,101614.00
2023-03-20T07:13:50.456Z,101609.63
2023-03-20T07:16:18.526Z,101613.00
2023-03-20T07:18:46.671Z,101617.34
2023-03-20T07:21:18.363Z,101595.44
2023-03-20T07:23:46.776Z,101606.63
2023-03-20T07:26:14.890Z,101614.56
2023-03-20T07:28:42.914Z,101608.34
2023-03-20T07:31:11.998Z,101608.41
2023-03-20T07:33:40.489Z,101615.47
2023-03-20T07:36:09.020Z,101616.34
2023-03-20T07:38:38.698Z,101616.22
2023-03-20T07:41:10.217Z,101595.19
2023-03-20T07:43:38.314Z,101614.16
2023-03-20T07:46:07.167Z,101616.69
2023-03-20T07:48:35.117Z,101615.75
2023-03-20T07:51:03.048Z,101621.91
2023-03-20T07:53:31.020Z,101614.84
2023-03-20T07:56:00.831Z,101616.63
2023-03-20T07:58:28.963Z,101618.31
2023-03-20T08:00:58.152Z,101615.63
2023-03-20T08:03:26.633Z,101617.25
2023-03-20T08:05:55.497Z,101624.28
2023-03-20T08:08:23.865Z,101622.38
2023-03-20T08:10:52.048Z,101627.56
2023-03-20T08:13:21.679Z,101621.28
2023-03-20T08:15:49.741Z,101629.31
2023-03-20T08:18:18.072Z,101627.56
2023-03-20T08:20:48.560Z,101624.88
2023-03-20T08:24:13.550Z,101623.88
2023-03-20T08:26:42.551Z,101626.50
2023-03-20T08:29:12.358Z,101629.03
2023-03-20T08:31:41.166Z,101614.13
2023-03-20T08:34:09.729Z,101619.41
2023-03-20T08:36:39.655Z,101615.72
2023-03-20T08:39:08.416Z,101621.09
2023-03-20T08:41:39.028Z,101613.97
2023-03-20T08:44:07.154Z,101617.59
2023-03-20T08:46:36.527Z,101614.78
2023-03-20T08:49:05.341Z,101634.38
2023-03-20T08:51:33.401Z,101625.72
2023-03-20T08:54:01.489Z,101630.69
2023-03-20T08:56:29.469Z,101631.28
2023-03-20T08:58:57.665Z,101606.84
2023-03-20T09:01:30.390Z,101633.63
2023-03-20T09:04:08.307Z,101626.53
2023-03-20T09:06:38.229Z,101631.00
2023-03-20T09:09:06.141Z,101634.25
2023-03-20T09:11:34.308Z,101632.25
2023-03-20T09:14:02.225Z,101626.91
2023-03-20T09:16:30.501Z,101631.13
2023-03-20T09:18:58.430Z,101621.16
2023-03-20T09:21:27.767Z,101628.25
2023-03-20T09:23:55.777Z,101633.44
2023-03-20T09:26:23.644Z,101631.84
2023-03-20T09:28:51.574Z,101629.94
2023-03-20T09:31:19.585Z,101634.41
2023-03-20T09:33:47.660Z,101636.13
2023-03-20T09:36:18.373Z,101625.63
2023-03-20T09:38:48.182Z,101647.78
2023-03-20T09:41:18.895Z,101624.81
2023-03-20T09:43:52.239Z,101619.63
2023-03-20T09:46:31.351Z,101626.50
2023-03-20T09:49:02.654Z,101636.00
2023-03-20T09:51:33.287Z,101645.69
2023-03-20T09:54:05.240Z,101632.22
2023-03-20T09:56:33.377Z,101611.34
2023-03-20T09:59:02.902Z,101633.59
2023-03-20T10:01:32.708Z,101638.59
2023-03-20T10:04:01.775Z,101635.84
2023-03-20T10:06:29.781Z,101645.31
2023-03-20T10:08:58.330Z,101649.00
2023-03-20T10:11:49.031Z,101637.59
2023-03-20T10:14:22.557Z,101645.75
2023-03-20T10:16:58.670Z,101645.19
2023-03-20T10:19:31.077Z,101646.34
2023-03-20T10:22:02.257Z,101642.84
2023-03-20T10:24:31.228Z,101638.53
2023-03-20T10:27:04.211Z,101639.38
2023-03-20T10:29:36.096Z,101637.28
2023-03-20T10:32:06.055Z,101646.19
2023-03-20T10:34:42.820Z,101635.34
2023-03-20T10:37:18.763Z,101619.72
2023-03-20T10:39:53.192Z,101644.03
2023-03-20T10:42:25.134Z,101645.84
2023-03-20T10:44:55.717Z,101642.94
2023-03-20T10:47:24.024Z,101639.41
2023-03-20T10:49:54.252Z,101641.84
2023-03-20T10:52:24.143Z,101634.69
2023-03-20T10:54:54.677Z,101635.50
2023-03-20T10:57:24.955Z,101625.66
2023-03-20T10:59:53.094Z,101623.59
2023-03-20T11:02:23.345Z,101627.94
2023-03-20T11:04:51.552Z,101630.50
2023-03-20T11:07:24.484Z,101617.09
2023-03-20T11:10:11.634Z,101617.09
2023-03-20T11:12:41.668Z,101606.53
2023-03-20T11:15:20.702Z,101604.88
2023-03-20T11:17:55.650Z,101612.06
2023-03-20T11:20:24.466Z,101614.88
2023-03-20T11:22:52.349Z,101612.19
2023-03-20T11:25:30.257Z,101598.00
2023-03-20T11:28:00.111Z,101604.94
2023-03-20T11:30:28.234Z,101603.38
2023-03-20T11:32:56.948Z,101603.38
2023-03-20T11:35:31.125Z,101606.75
2023-03-20T11:38:09.841Z,101595.81
2023-03-20T11:40:38.958Z,101597.16
2023-03-20T11:43:12.963Z,101597.72
2023-03-20T11:45:41.587Z,101591.44
2023-03-20T11:48:17.073Z,101595.78
2023-03-20T11:50:46.465Z,101588.63
2023-03-20T11:53:26.669Z,101583.41
2023-03-20T11:56:02.751Z,101581.75
2023-03-20T11:58:32.166Z,101577.19
2023-03-20T12:01:00.207Z,101579.81
2023-03-20T12:03:46.813Z,101579.53
2023-03-20T12:06:17.222Z,101583.97
2023-03-20T12:08:48.876Z,101583.28
2023-03-20T12:11:22.472Z,101577.97
2023-03-20T12:13:51.770Z,101578.16
2023-03-20T12:16:20.612Z,101574.59
2023-03-20T12:18:49.186Z,101575.28
2023-03-20T12:21:19.311Z,101574.44
2023-03-20T12:23:48.972Z,101577.19
2023-03-20T12:26:19.052Z,101578.19
2023-03-20T12:28:49.763Z,101561.75
2023-03-20T12:31:26.085Z,101568.28
2023-03-20T12:33:56.047Z,101554.88
2023-03-20T12:36:27.661Z,101556.53
2023-03-20T12:38:55.538Z,101561.69
2023-03-20T12:41:25.763Z,101557.97
2023-03-20T12:44:16.879Z,101558.13
2023-03-20T12:46:48.446Z,101562.53
2023-03-20T12:49:26.611Z,101565.22
2023-03-20T12:51:59.336Z,101558.94
2023-03-20T12:54:35.952Z,101531.97
2023-03-20T12:57:08.479Z,101538.03
2023-03-20T12:59:43.855Z,101551.75
2023-03-20T13:02:20.398Z,101552.72
2023-03-20T13:05:01.623Z,101542.69
2023-03-20T13:07:42.480Z,101525.94
2023-03-20T13:10:18.955Z,101535.22
2023-03-20T13:12:51.689Z,101544.22
2023-03-20T13:15:24.963Z,101534.50
2023-03-20T13:17:58.721Z,101528.50
2023-03-20T13:20:28.175Z,101542.56
2023-03-20T13:23:01.138Z,101537.34
2023-03-20T13:26:01.511Z,101539.09
2023-03-20T13:28:32.074Z,101525.19
2023-03-20T13:31:02.620Z,101531.28
2023-03-20T13:33:43.825Z,101517.47
2023-03-20T13:36:16.483Z,101524.50
2023-03-20T13:38:51.757Z,101509.13
2023-03-20T13:41:20.142Z,101523.06
2023-03-20T13:43:49.430Z,101510.78
2023-03-20T13:46:19.317Z,101517.63
2023-03-20T13:48:48.643Z,101510.53
2023-03-20T13:51:23.136Z,101504.00
2023-03-20T13:53:59.546Z,101500.94
2023-03-20T13:56:34.629Z,101497.00
2023-03-20T13:59:12.604Z,101492.28
2023-03-20T14:01:43.972Z,101476.75
2023-03-20T14:04:15.641Z,101492.09
2023-03-20T14:07:01.364Z,101470.31
2023-03-20T14:09:31.829Z,101484.94
2023-03-20T14:12:04.482Z,101476.38
2023-03-20T14:14:34.370Z,101491.09
2023-03-20T14:17:03.997Z,101472.72
2023-03-20T14:19:33.290Z,101476.38
2023-03-20T14:22:01.221Z,101478.94
2023-03-20T14:24:29.138Z,101496.00
2023-03-20T14:26:58.125Z,101499.19
2023-03-20T14:29:34.193Z,101496.13
2023-03-20T14:32:07.246Z,101494.06
2023-03-20T14:34:55.111Z,101494.53
2023-03-20T14:37:37.744Z,101484.28
2023-03-20T14:40:13.060Z,101491.38
2023-03-20T14:42:48.021Z,101486.13
2023-03-20T14:45:39.205Z,101486.16
2023-03-20T14:48:15.432Z,101479.16
2023-03-20T14:50:52.959Z,101465.44
2023-03-20T14:53:21.503Z,101464.59
2023-03-20T14:55:52.594Z,101462.69
2023-03-20T14:58:57.819Z,101459.00
2023-03-20T15:01:27.902Z,101440.97
2023-03-20T15:03:58.818Z,101457.56
2023-03-20T15:06:28.997Z,101443.03
2023-03-20T15:08:58.072Z,101449.91
2023-03-20T15:11:27.033Z,101448.03
2023-03-20T15:13:55.362Z,101455.19
2023-03-20T15:16:30.298Z,101426.69
2023-03-20T15:18:58.468Z,101451.13
2023-03-20T15:21:31.596Z,101453.88
2023-03-20T15:23:59.865Z,101444.97
2023-03-20T15:26:29.406Z,101448.63
2023-03-20T15:29:04.440Z,101437.19
2023-03-20T15:31:33.663Z,101431.69
2023-03-20T15:34:02.480Z,101433.50
2023-03-20T15:36:32.900Z,101427.22
2023-03-20T15:39:07.164Z,101401.94
2023-03-20T15:41:36.589Z,101416.88
2023-03-20T15:44:17.878Z,101415.94
2023-03-20T15:46:53.806Z,101418.69
2023-03-20T15:49:22.070Z,101415.94
2023-03-20T15:51:51.406Z,101424.75
2023-03-20T15:54:19.909Z,101423.09
2023-03-20T15:56:48.602Z,101423.25
2023-03-20T15:59:18.151Z,101419.00
2023-03-20T16:01:46.450Z,101423.63
2023-03-20T16:04:15.736Z,101417.41
2023-03-20T16:06:48.320Z,101414.88
2023-03-20T16:09:18.510Z,101401.94
2023-03-20T16:11:47.378Z,101415.25
2023-03-20T16:14:17.694Z,101409.97
2023-03-20T16:16:46.398Z,101408.16
2023-03-20T16:19:15.380Z,101411.63
2023-03-20T16:21:46.668Z,101412.59
2023-03-20T16:24:20.567Z,101400.44
2023-03-20T16:26:51.385Z,101396.13
2023-03-20T16:29:19.564Z,101406.50
2023-03-20T16:31:50.545Z,101398.66
2023-03-20T16:34:20.035Z,101405.72
2023-03-20T16:36:52.189Z,101396.19
2023-03-20T16:39:22.931Z,101401.69
2023-03-20T16:41:57.675Z,101394.66
2023-03-20T16:44:30.153Z,101401.97
2023-03-20T16:59:08.877Z,101380.16
2023-03-20T17:01:36.831Z,101384.47
2023-03-20T17:04:14.909Z,101387.22
2023-03-20T17:06:45.954Z,101386.44
2023-03-20T17:09:19.609Z,101375.09
2023-03-20T17:11:49.844Z,101369.91
2023-03-20T17:14:19.145Z,101378.06
2023-03-20T17:16:47.175Z,101378.28
2023-03-20T17:19:16.974Z,101368.69
2023-03-20T17:21:46.008Z,101369.69
2023-03-20T17:24:14.408Z,101353.94
2023-03-20T17:26:43.709Z,101359.34
2023-03-20T17:29:11.788Z,101352.28
2023-03-20T17:31:41.142Z,101354.09
2023-03-20T17:34:10.682Z,101351.41
2023-03-20T17:36:38.831Z,101357.63
2023-03-20T17:39:06.719Z,101347.03
2023-03-20T17:41:34.652Z,101346.19
2023-03-20T17:44:03.055Z,101342.81
2023-03-20T17:46:31.781Z,101362.97
2023-03-20T17:49:04.814Z,101350.75
2023-03-20T17:51:33.133Z,101360.22
2023-03-20T17:54:01.094Z,101349.44
2023-03-20T17:56:30.334Z,101342.47
2023-03-20T17:58:58.277Z,101343.97
2023-03-20T18:01:26.522Z,101348.31
2023-03-20T18:03:54.658Z,101341.16
2023-03-20T18:06:25.603Z,101340.19
2023-03-20T18:08:53.455Z,101338.50
2023-03-20T18:11:25.017Z,101340.19
2023-03-20T18:13:53.153Z,101336.75
2023-03-20T18:16:22.160Z,101326.06
2023-03-20T18:18:50.996Z,101333.06
2023-03-20T18:21:18.892Z,101323.31
2023-03-20T18:23:48.136Z,101324.75
2023-03-20T18:26:20.651Z,101329.25
2023-03-20T18:28:48.777Z,101323.16
2023-03-20T18:31:19.138Z,101326.69
2023-03-20T18:33:48.024Z,101326.63
2023-03-20T18:36:17.333Z,101325.81
2023-03-20T18:38:45.386Z,101317.91
2023-03-20T18:41:14.716Z,101307.44
2023-03-20T18:43:42.606Z,101319.56
2023-03-20T18:46:13.628Z,101316.88
2023-03-20T18:48:42.075Z,101325.81
2023-03-20T18:51:10.430Z,101322.50
2023-03-20T18:53:38.314Z,101318.19
2023-03-20T18:56:08.381Z,101312.13
2023-03-20T18:58:38.306Z,101308.34
2023-03-20T19:01:06.312Z,101304.09
2023-03-20T19:03:39.356Z,101298.84
2023-03-20T19:06:09.698Z,101296.97
2023-03-20T19:08:38.825Z,101289.88
2023-03-20T19:11:09.971Z,101283.59
2023-03-20T19:13:39.777Z,101282.03
2023-03-20T19:16:12.933Z,101298.06
2023-03-20T19:18:40.868Z,101292.97
2023-03-20T19:21:08.774Z,101269.97
2023-03-20T19:23:36.842Z,101278.00
2023-03-20T19:26:04.944Z,101258.34
2023-03-20T19:28:40.670Z,101255.75
2023-03-20T19:31:10.875Z,101266.34
2023-03-20T19:33:39.391Z,101258.63
2023-03-20T19:36:08.073Z,101255.88
2023-03-20T19:38:37.176Z,101246.22
2023-03-20T19:41:05.465Z,101244.72
2023-03-20T19:43:33.388Z,101238.63
2023-03-20T19:46:01.264Z,101234.25
2023-03-20T19:48:46.944Z,101231.50
2023-03-20T19:51:18.603Z,101231.59
2023-03-20T19:53:46.616Z,101230.75
2023-03-20T19:56:14.949Z,101222.00
2023-03-20T19:58:43.358Z,101227.13
2023-03-20T20:01:15.457Z,101231.63
2023-03-20T20:03:45.083Z,101226.25
2023-03-20T20:06:12.982Z,101229.69
2023-03-20T20:08:49.447Z,101221.69
2023-03-20T20:11:17.613Z,101233.34
2023-03-20T20:14:07.075Z,101229.69
2023-03-20T20:16:35.261Z,101225.22
2023-03-20T20:19:04.676Z,101241.31
2023-03-20T20:24:20.491Z,101243.94
2023-03-20T20:26:54.801Z,101232.28
2023-03-20T20:29:24.923Z,101234.03
2023-03-20T20:31:52.914Z,101232.16
2023-03-20T20:37:51.802Z,101229.47
2023-03-20T20:39:58.253Z,101225.94
2023-03-20T20:42:26.447Z,101195.75
2023-03-20T20:44:54.346Z,101208.34
2023-03-20T20:47:22.716Z,101195.75
2023-03-20T20:49:52.103Z,101189.56
2023-03-20T20:52:20.116Z,101190.56
2023-03-20T20:54:48.356Z,101195.84
2023-03-20T20:57:16.414Z,101172.28
2023-03-20T20:59:44.344Z,101173.81
2023-03-20T21:02:12.751Z,101182.91
2023-03-20T21:04:41.253Z,101183.91
2023-03-20T21:07:11.817Z,101193.81
2023-03-20T21:09:40.045Z,101171.88
2023-03-20T21:12:08.592Z,101172.75
2023-03-20T21:14:36.547Z,101171.88
2023-03-20T21:17:04.438Z,101172.97
2023-03-20T21:19:34.234Z,101162.88
2023-03-20T21:22:04.896Z,101161.13
2023-03-20T21:24:35.185Z,101169.00
2023-03-20T21:27:03.406Z,101161.00
2023-03-20T21:29:32.751Z,101166.34
2023-03-20T21:32:00.718Z,101170.88
2023-03-20T21:34:29.177Z,101173.41
2023-03-20T21:36:57.809Z,101172.53
2023-03-20T21:39:28.492Z,101169.00
2023-03-20T21:41:58.297Z,101165.47
2023-03-20T21:45:08.949Z,101132.59
2023-03-20T21:48:17.381Z,101151.19
2023-03-20T22:13:15.279Z,101142.75
2023-03-20T22:21:41.589Z,101086.00
2023-03-20T22:24:37.925Z,101080.47
2023-03-20T22:27:38.577Z,101074.31
2023-03-20T22:30:02.588Z,101068.97
2023-03-20T22:32:52.171Z,101064.47
2023-03-20T22:41:24.389Z,101078.63
2023-03-20T22:46:43.939Z,101072.47
2023-03-20T22:49:04.132Z,101079.56
2023-03-20T22:51:36.850Z,101071.47
2023-03-20T22:54:08.931Z,101077.69
2023-03-20T22:56:36.789Z,101070.38
2023-03-20T22:59:05.054Z,101071.34
2023-03-20T23:01:32.897Z,101073.13
2023-03-20T23:04:00.758Z,101076.75
2023-03-20T23:06:30.050Z,101073.28
2023-03-20T23:09:02.412Z,101074.09
2023-03-20T23:11:33.463Z,101075.09
2023-03-20T23:14:01.392Z,101064.34
2023-03-20T23:16:29.269Z,101055.53
2023-03-20T23:18:57.803Z,101063.63
2023-03-20T23:21:26.673Z,101063.69
2023-03-20T23:23:55.913Z,101065.34
2023-03-20T23:26:24.198Z,101059.88
2023-03-20T23:28:53.372Z,101048.31
2023-03-20T23:31:22.476Z,101042.97
2023-03-20T23:33:51.751Z,101055.09
2023-03-20T23:36:34.931Z,101045.28
2023-03-20T23:39:05.244Z,101037.09
2023-03-20T23:41:57.976Z,101032.50
2023-03-20T23:44:21.081Z,101021.63
2023-03-20T23:46:49.217Z,101009.34
2023-03-20T23:49:18.134Z,101006.25
2023-03-20T23:51:46.036Z,101015.13
2023-03-20T23:54:16.002Z,101008.78
2023-03-20T23:56:43.878Z,101007.75
2023-03-20T23:59:20.959Z,100995.88
